Time;durP1;ratioP1;P1;durP2;ratioP2;P2;SDS_P1;SDS_P2;PMS_P1;PMS_P2;Temp;Humidity;BMP_temperature;BMP_pressure;BME280_temperature;BME280_humidity;BME280_pressure;Samples;Min_cycle;Max_cycle;Signal;HPM_P1;HPM_P2
2023/06/28 00:01:17;;;;;;;17.70;12.80;;;;;;;26.72;54.62;99076.31;107902;1259;59979;-70
2023/06/28 00:03:45;;;;;;;16.90;12.90;;;;;;;26.94;54.01;99076.19;107923;1257;71452;-68
2023/06/28 00:06:12;;;;;;;16.50;13.00;;;;;;;26.91;54.17;99079.42;107862;1257;69209;-69
2023/06/28 00:08:42;;;;;;;16.10;12.90;;;;;;;26.83;54.50;99075.21;107904;1257;71248;-69
2023/06/28 00:11:10;;;;;;;14.20;12.20;;;;;;;27.07;53.81;99069.20;107897;1254;62186;-69
2023/06/28 00:13:37;;;;;;;15.10;11.20;;;;;;;27.11;53.82;99067.09;107934;1259;59579;-69
2023/06/28 00:16:04;;;;;;;15.60;12.00;;;;;;;27.12;53.60;99060.48;107912;1258;71234;-69
2023/06/28 00:18:33;;;;;;;15.30;12.20;;;;;;;27.13;53.68;99063.17;107966;1257;70074;-68
2023/06/28 00:21:02;;;;;;;15.80;12.30;;;;;;;27.07;53.98;99068.66;107935;1257;71786;-69
2023/06/28 00:23:30;;;;;;;11.50;9.20;;;;;;;27.11;53.95;99064.59;107885;1255;59958;-69
2023/06/28 00:25:58;;;;;;;15.80;11.50;;;;;;;27.10;54.15;99066.86;107787;1256;59545;-68
2023/06/28 00:28:25;;;;;;;14.90;11.00;;;;;;;27.22;53.75;99065.48;107833;1254;73042;-68
2023/06/28 00:30:53;;;;;;;17.70;12.80;;;;;;;27.22;53.74;99068.11;107761;1256;70084;-68
2023/06/28 00:33:20;;;;;;;14.20;11.60;;;;;;;27.08;54.10;99070.22;108002;1257;72229;-68
2023/06/28 00:35:48;;;;;;;16.40;12.30;;;;;;;27.13;53.85;99074.20;107961;1256;61338;-67
2023/06/28 00:38:16;;;;;;;15.40;10.60;;;;;;;27.01;54.32;99073.16;107871;1254;59055;-68
2023/06/28 00:40:44;;;;;;;16.90;11.60;;;;;;;27.00;54.30;99077.42;108095;1254;71055;-67
2023/06/28 00:43:12;;;;;;;16.50;11.40;;;;;;;27.20;53.83;99068.16;107855;1254;69207;-70
2023/06/28 00:45:39;;;;;;;14.90;11.30;;;;;;;27.28;53.43;99061.87;107754;1257;72953;-69
2023/06/28 00:48:07;;;;;;;16.40;11.80;;;;;;;27.42;52.81;99062.30;107821;1254;61642;-68
2023/06/28 00:50:35;;;;;;;17.10;10.30;;;;;;;27.22;53.34;99060.68;107864;1257;59657;-67
2023/06/28 00:53:02;;;;;;;12.40;10.10;;;;;;;27.04;53.77;99065.80;107808;1254;73128;-67
2023/06/28 00:55:30;;;;;;;13.10;10.50;;;;;;;26.96;53.97;99069.60;107747;1257;69740;-68
2023/06/28 00:57:57;;;;;;;12.20;9.50;;;;;;;26.96;53.80;99069.31;107914;1260;72671;-67
2023/06/28 01:00:26;;;;;;;10.80;9.50;;;;;;;26.91;53.36;99062.88;107870;1257;61738;-67
2023/06/28 01:02:54;;;;;;;10.70;9.30;;;;;;;27.01;53.05;99052.16;107734;1254;59545;-68
2023/06/28 01:05:22;;;;;;;13.50;9.00;;;;;;;26.91;52.76;99050.39;107916;1257;72495;-68
2023/06/28 01:07:50;;;;;;;10.10;8.90;;;;;;;27.18;51.66;99045.73;107882;1257;69755;-68
2023/06/28 01:10:18;;;;;;;11.50;8.60;;;;;;;27.25;51.44;99041.41;109001;1256;73204;-68
2023/06/28 01:12:46;;;;;;;12.00;8.40;;;;;;;27.50;50.64;99040.69;107808;1262;60562;-67
2023/06/28 01:15:14;;;;;;;11.70;8.60;;;;;;;27.61;50.38;99038.81;107900;1257;59727;-68
2023/06/28 01:17:42;;;;;;;12.50;8.00;;;;;;;27.64;50.10;99039.95;107938;1256;73135;-68
2023/06/28 01:20:09;;;;;;;10.00;8.10;;;;;;;27.60;49.87;99037.25;107959;1261;70040;-68
2023/06/28 01:22:40;;;;;;;10.40;8.30;;;;;;;27.39;50.10;99041.15;108068;1254;71146;-66
2023/06/28 01:25:10;;;;;;;9.00;7.60;;;;;;;27.18;50.52;99046.05;108311;1253;60451;-68
2023/06/28 01:27:40;;;;;;;10.70;7.50;;;;;;;27.26;50.23;99045.57;107915;1253;60015;-68
2023/06/28 01:30:10;;;;;;;11.00;7.60;;;;;;;27.31;50.44;99056.86;107960;1259;72475;-70
2023/06/28 01:32:38;;;;;;;11.70;8.10;;;;;;;27.27;50.17;99059.31;107901;1254;70354;-68
2023/06/28 01:35:07;;;;;;;10.90;8.00;;;;;;;27.23;50.43;99062.71;107879;1254;71532;-69
2023/06/28 01:37:35;;;;;;;14.30;7.70;;;;;;;27.19;50.43;99061.83;107999;1253;61564;-68
2023/06/28 01:40:02;;;;;;;12.30;8.10;;;;;;;27.43;49.77;99063.25;107838;1254;59011;-69
2023/06/28 01:42:30;;;;;;;9.50;8.20;;;;;;;27.39;49.82;99065.31;107593;1253;73140;-69
2023/06/28 01:44:57;;;;;;;9.30;7.90;;;;;;;27.32;50.13;99066.83;108180;1254;69011;-69
2023/06/28 01:47:26;;;;;;;11.70;7.40;;;;;;;27.12;50.65;99069.14;108569;1253;72698;-69
2023/06/28 01:49:53;;;;;;;9.70;6.60;;;;;;;27.11;50.54;99061.72;107814;1256;61815;-70
2023/06/28 01:52:21;;;;;;;11.90;8.10;;;;;;;27.08;50.45;99067.13;107847;1255;60022;-70
2023/06/28 01:54:48;;;;;;;14.20;7.70;;;;;;;26.92;50.82;99062.58;107953;1254;73043;-68
2023/06/28 01:57:15;;;;;;;9.20;7.50;;;;;;;27.09;50.18;99056.13;107859;1261;69170;-68
2023/06/28 01:59:43;;;;;;;12.40;7.80;;;;;;;27.24;49.89;99055.38;107901;1254;71941;-69
2023/06/28 02:02:10;;;;;;;11.80;7.80;;;;;;;27.05;50.38;99057.71;107937;1257;62318;-68
2023/06/28 02:04:37;;;;;;;12.00;7.60;;;;;;;26.97;50.38;99058.85;108044;1253;60472;-69
2023/06/28 02:07:06;;;;;;;15.30;7.30;;;;;;;26.93;50.61;99058.27;108095;1253;75168;-68
2023/06/28 02:09:33;;;;;;;9.80;6.70;;;;;;;26.89;50.63;99062.00;108017;1254;68872;-70
2023/06/28 02:12:03;;;;;;;8.70;7.80;;;;;;;27.03;50.38;99059.71;108002;1254;72470;-68
2023/06/28 02:14:32;;;;;;;9.70;7.60;;;;;;;27.02;50.27;99057.88;107881;1255;61634;-68
2023/06/28 02:16:59;;;;;;;11.40;7.50;;;;;;;26.96;50.20;99057.34;107736;1254;59952;-68
2023/06/28 02:19:29;;;;;;;10.50;6.60;;;;;;;27.05;49.95;99050.48;107979;1253;73053;-67
2023/06/28 02:21:57;;;;;;;10.90;8.10;;;;;;;27.00;50.11;99049.99;108033;1254;70049;-69
2023/06/28 02:24:25;;;;;;;11.60;7.40;;;;;;;27.02;50.07;99054.64;108186;1258;71681;-67
2023/06/28 02:26:53;;;;;;;14.00;7.80;;;;;;;27.00;50.11;99058.52;107914;1259;60959;-67
2023/06/28 02:29:21;;;;;;;9.50;7.10;;;;;;;26.82;50.47;99062.31;107948;1254;60492;-68
2023/06/28 02:31:48;;;;;;;10.90;7.40;;;;;;;27.03;49.87;99065.02;108479;1254;73041;-68
2023/06/28 02:34:16;;;;;;;8.30;6.60;;;;;;;26.89;50.04;99071.88;107934;1259;69017;-69
2023/06/28 02:36:43;;;;;;;10.60;7.00;;;;;;;26.86;49.89;99073.01;107918;1253;72378;-69
2023/06/28 02:39:11;;;;;;;9.10;7.30;;;;;;;26.91;49.73;99075.07;107819;1256;60381;-66
2023/06/28 02:41:39;;;;;;;14.20;6.90;;;;;;;26.93;49.73;99082.58;107964;1254;60005;-68
2023/06/28 02:44:06;;;;;;;15.50;7.00;;;;;;;26.92;49.56;99079.14;107949;1254;73084;-66
2023/06/28 02:46:34;;;;;;;12.20;6.80;;;;;;;26.74;49.78;99078.63;107829;1253;69401;-68
2023/06/28 02:49:01;;;;;;;11.70;6.20;;;;;;;26.69;49.79;99082.70;107886;1257;72764;-68
2023/06/28 02:51:29;;;;;;;13.10;6.80;;;;;;;26.69;49.65;99079.18;107876;1256;60387;-68
2023/06/28 02:53:58;;;;;;;8.70;6.70;;;;;;;26.70;49.69;99085.80;107966;1254;62327;-67
2023/06/28 02:56:26;;;;;;;13.90;6.90;;;;;;;26.83;49.30;99090.52;107983;1254;73044;-67
2023/06/28 02:59:12;;;;;;;11.60;6.90;;;;;;;26.69;49.47;99094.71;108003;1254;70420;-67
2023/06/28 03:01:40;;;;;;;8.40;6.30;;;;;;;26.65;49.50;99098.09;107888;1254;72806;-67
2023/06/28 03:04:07;;;;;;;12.40;7.40;;;;;;;26.58;49.50;99096.08;107941;1254;61650;-68
2023/06/28 03:06:35;;;;;;;11.70;7.30;;;;;;;26.72;49.09;99089.51;107842;1259;60433;-67
2023/06/28 03:09:02;;;;;;;9.10;6.20;;;;;;;26.67;49.04;99088.48;107919;1254;73785;-68
2023/06/28 03:11:30;;;;;;;13.10;6.50;;;;;;;26.76;48.73;99085.34;107927;1254;69988;-68
2023/06/28 03:13:58;;;;;;;11.70;6.50;;;;;;;26.73;48.85;99084.30;107962;1254;73111;-69
2023/06/28 03:16:25;;;;;;;14.00;5.90;;;;;;;26.83;48.56;99086.81;107898;1254;61688;-69
2023/06/28 03:18:54;;;;;;;10.80;6.90;;;;;;;26.89;48.29;99088.84;107977;1259;60328;-68
2023/06/28 03:21:21;;;;;;;8.80;5.90;;;;;;;26.74;48.57;99088.05;108004;1258;73853;-69
2023/06/28 03:23:49;;;;;;;9.80;6.60;;;;;;;26.81;48.30;99088.06;108026;1259;70795;-67
2023/06/28 03:26:16;;;;;;;10.40;7.00;;;;;;;26.84;48.22;99089.98;108030;1255;71641;-66
2023/06/28 03:28:44;;;;;;;13.80;6.30;;;;;;;26.91;48.11;99098.55;108037;1254;60450;-67
2023/06/28 03:31:11;;;;;;;10.20;5.70;;;;;;;27.05;47.68;99105.05;107952;1254;60452;-67
2023/06/28 03:33:39;;;;;;;7.20;5.70;;;;;;;27.09;47.68;99107.17;107940;1254;74286;-68
2023/06/28 03:36:06;;;;;;;9.90;6.30;;;;;;;27.01;47.58;99104.66;107984;1254;70093;-67
2023/06/28 03:38:35;;;;;;;8.80;6.50;;;;;;;26.96;47.58;99101.15;107958;1259;72675;-68
2023/06/28 03:41:03;;;;;;;10.50;6.50;;;;;;;26.98;47.70;99102.34;107884;1254;61785;-68
2023/06/28 03:43:30;;;;;;;12.00;6.40;;;;;;;27.04;47.54;99102.58;107885;1254;60441;-69
2023/06/28 03:45:58;;;;;;;11.70;6.40;;;;;;;27.08;47.29;99103.64;108635;1254;74019;-69
2023/06/28 03:48:25;;;;;;;11.90;6.40;;;;;;;27.27;46.69;99106.59;107960;1259;70061;-70
2023/06/28 03:50:53;;;;;;;11.30;6.20;;;;;;;27.23;46.84;99107.55;107845;1256;71888;-67
2023/06/28 03:53:22;;;;;;;10.30;6.00;;;;;;;27.27;46.39;99100.48;107867;1256;62203;-69
2023/06/28 03:55:51;;;;;;;7.40;5.80;;;;;;;27.38;46.17;99103.41;107917;1258;60349;-68
2023/06/28 03:58:19;;;;;;;10.90;5.70;;;;;;;27.41;45.79;99100.83;107929;1254;72723;-69
2023/06/28 04:00:46;;;;;;;10.80;5.70;;;;;;;27.38;45.95;99106.98;107956;1255;70259;-69
2023/06/28 04:03:15;;;;;;;7.60;4.80;;;;;;;27.43;45.41;99104.02;107944;1254;71438;-69
2023/06/28 04:05:43;;;;;;;12.20;5.20;;;;;;;27.43;45.42;99097.98;107899;1254;61867;-68
2023/06/28 04:08:11;;;;;;;8.30;5.60;;;;;;;27.54;45.28;99099.33;107967;1254;60218;-68
2023/06/28 04:10:38;;;;;;;11.50;5.10;;;;;;;27.37;44.98;99102.93;107968;1260;73931;-67
2023/06/28 04:13:06;;;;;;;9.60;5.40;;;;;;;27.48;44.81;99106.55;107957;1254;69988;-68
2023/06/28 04:15:33;;;;;;;11.30;4.90;;;;;;;27.58;44.36;99106.63;107972;1259;71119;-68
2023/06/28 04:18:01;;;;;;;8.20;5.30;;;;;;;27.49;44.25;99098.95;107901;1255;60442;-69
2023/06/28 04:20:28;;;;;;;6.80;5.20;;;;;;;27.58;44.37;99098.39;107969;1259;60351;-66
2023/06/28 04:22:56;;;;;;;10.40;5.60;;;;;;;27.49;44.40;99095.62;107945;1259;74174;-68
2023/06/28 04:25:23;;;;;;;6.90;4.70;;;;;;;27.21;44.04;99097.95;107875;1259;70679;-69
2023/06/28 04:27:50;;;;;;;8.80;4.80;;;;;;;27.41;44.03;99099.77;107819;1259;72729;-68
2023/06/28 04:30:18;;;;;;;8.60;4.80;;;;;;;27.52;43.60;99097.83;107870;1259;61496;-69
2023/06/28 04:32:45;;;;;;;8.00;4.60;;;;;;;27.75;43.28;99096.58;107902;1254;59453;-69
2023/06/28 04:35:13;;;;;;;7.30;4.30;;;;;;;27.95;43.01;99091.75;107958;1259;73881;-68
2023/06/28 04:37:43;;;;;;;10.40;4.70;;;;;;;28.21;43.40;99087.21;107967;1254;70295;-69
2023/06/28 04:40:12;;;;;;;12.70;4.80;;;;;;;28.71;41.96;99082.63;107881;1260;71580;-69
2023/06/28 04:42:39;;;;;;;5.80;4.00;;;;;;;28.89;41.47;99084.86;108103;1254;60729;-70
2023/06/28 04:45:07;;;;;;;10.40;4.90;;;;;;;29.02;40.93;99083.29;107930;1253;60539;-66
2023/06/28 04:47:36;;;;;;;6.30;4.20;;;;;;;29.05;40.44;99090.66;107944;1255;71996;-68
2023/06/28 04:50:04;;;;;;;6.10;4.10;;;;;;;28.91;40.20;99098.13;107979;1254;69983;-69
2023/06/28 04:52:31;;;;;;;5.90;3.70;;;;;;;28.96;39.86;99102.71;107981;1254;72859;-69
2023/06/28 04:54:59;;;;;;;9.60;4.20;;;;;;;28.87;39.87;99102.27;108060;1254;61658;-69
2023/06/28 04:57:27;;;;;;;8.60;4.20;;;;;;;28.85;40.04;99101.60;107993;1254;60296;-69
2023/06/28 04:59:55;;;;;;;8.20;4.30;;;;;;;28.75;40.01;99100.40;107895;1254;73664;-69
2023/06/28 05:02:25;;;;;;;6.90;4.10;;;;;;;28.58;40.21;99105.01;107897;1254;68752;-69
2023/06/28 05:04:53;;;;;;;8.70;4.20;;;;;;;28.78;39.98;99106.98;107852;1254;72705;-68
2023/06/28 05:07:20;;;;;;;6.90;4.10;;;;;;;28.82;39.80;99110.00;107850;1254;61681;-68
2023/06/28 05:09:48;;;;;;;6.60;3.90;;;;;;;28.58;39.94;99112.09;107921;1254;60313;-69
2023/06/28 05:12:16;;;;;;;7.40;3.80;;;;;;;28.60;40.25;99113.78;107748;1254;74575;-68
2023/06/28 05:14:43;;;;;;;7.50;4.10;;;;;;;28.68;40.27;99110.70;107920;1255;70570;-69
2023/06/28 05:17:10;;;;;;;11.00;4.30;;;;;;;28.98;40.08;99113.59;107904;1254;75003;-68
2023/06/28 05:19:38;;;;;;;6.30;3.70;;;;;;;29.05;39.76;99110.42;107820;1254;60492;-68
2023/06/28 05:22:05;;;;;;;5.60;3.70;;;;;;;29.14;39.03;99110.81;107918;1253;60506;-68
2023/06/28 05:24:33;;;;;;;3.80;3.40;;;;;;;29.51;38.06;99113.41;108007;1254;73798;-68
2023/06/28 05:27:00;;;;;;;6.90;3.30;;;;;;;29.92;37.49;99110.23;107906;1255;69339;-70
2023/06/28 05:29:27;;;;;;;10.00;3.20;;;;;;;29.90;36.73;99109.05;107960;1254;72674;-69
2023/06/28 05:31:58;;;;;;;4.60;3.20;;;;;;;29.53;36.88;99112.30;107974;1256;60335;-70
2023/06/28 05:34:25;;;;;;;6.60;3.40;;;;;;;29.81;36.43;99110.92;107922;1254;60342;-69
2023/06/28 05:36:53;;;;;;;5.00;3.50;;;;;;;29.80;36.36;99108.25;107902;1254;72650;-69
2023/06/28 05:39:21;;;;;;;6.90;2.80;;;;;;;29.86;36.42;99110.85;107903;1254;69035;-70
2023/06/28 05:41:48;;;;;;;9.30;3.10;;;;;;;29.37;36.45;99109.95;107891;1254;72635;-69
2023/06/28 05:44:20;;;;;;;6.40;3.40;;;;;;;29.45;36.42;99111.56;107652;1254;60399;-67
2023/06/28 05:46:48;;;;;;;4.50;2.90;;;;;;;29.61;36.31;99114.94;107820;1254;60372;-68
2023/06/28 05:49:16;;;;;;;6.90;3.00;;;;;;;29.70;36.05;99119.04;107924;1254;74341;-68
2023/06/28 05:51:45;;;;;;;5.90;2.80;;;;;;;29.93;35.79;99117.87;107824;1254;70129;-68
2023/06/28 05:54:12;;;;;;;6.80;2.80;;;;;;;30.21;35.53;99114.30;107898;1258;72241;-69
2023/06/28 05:56:40;;;;;;;5.90;3.10;;;;;;;30.12;35.21;99119.86;107886;1254;62198;-70
2023/06/28 05:59:07;;;;;;;5.20;2.60;;;;;;;30.11;35.16;99117.35;107876;1254;60552;-68
2023/06/28 06:01:34;;;;;;;6.00;2.70;;;;;;;29.81;34.80;99116.23;107843;1254;73096;-69
2023/06/28 06:04:02;;;;;;;9.10;2.60;;;;;;;30.23;34.88;99125.63;107900;1254;69321;-69
2023/06/28 06:06:30;;;;;;;5.70;2.70;;;;;;;30.46;34.25;99124.30;107769;1254;72700;-67
2023/06/28 06:08:58;;;;;;;4.80;3.00;;;;;;;30.69;33.98;99122.65;107922;1257;60185;-69
2023/06/28 06:11:27;;;;;;;6.20;2.80;;;;;;;30.87;33.83;99124.52;107908;1257;59160;-69
2023/06/28 06:13:54;;;;;;;6.10;2.50;;;;;;;30.73;33.79;99128.70;107940;1254;73239;-69
2023/06/28 06:16:21;;;;;;;9.60;3.00;;;;;;;30.48;33.18;99131.91;107927;1254;68895;-67
2023/06/28 06:18:49;;;;;;;8.10;2.40;;;;;;;30.71;33.20;99129.46;107908;1257;72701;-69
2023/06/28 06:21:16;;;;;;;3.10;2.20;;;;;;;31.06;32.57;99120.62;107879;1255;60418;-70
2023/06/28 06:23:44;;;;;;;4.70;2.20;;;;;;;31.15;31.92;99118.84;107893;1259;60531;-69
2023/06/28 06:26:11;;;;;;;5.30;2.30;;;;;;;31.27;31.03;99123.84;107925;1253;72917;-69
2023/06/28 06:28:39;;;;;;;3.60;1.80;;;;;;;31.25;30.92;99117.79;107894;1259;71983;-68
2023/06/28 06:31:06;;;;;;;3.90;2.50;;;;;;;31.09;31.28;99122.52;107872;1257;71786;-69
2023/06/28 06:33:35;;;;;;;4.00;2.40;;;;;;;31.41;30.84;99122.17;107869;1259;60427;-68
2023/06/28 06:36:02;;;;;;;4.70;2.00;;;;;;;31.77;30.65;99117.67;107882;1254;60181;-70
2023/06/28 06:38:30;;;;;;;3.00;1.90;;;;;;;32.07;30.08;99122.16;107964;1254;72641;-70
2023/06/28 06:40:59;;;;;;;4.30;2.10;;;;;;;32.04;29.60;99128.31;107819;1254;70254;-69
2023/06/28 06:43:26;;;;;;;5.20;2.20;;;;;;;32.18;29.47;99128.84;107834;1254;72736;-69
2023/06/28 06:45:53;;;;;;;3.90;2.10;;;;;;;31.97;29.86;99129.08;107895;1257;60797;-68
2023/06/28 06:48:21;;;;;;;4.90;2.20;;;;;;;32.39;29.52;99129.94;107737;1254;59100;-70
2023/06/28 06:50:48;;;;;;;2.10;1.90;;;;;;;32.77;29.52;99136.35;107731;1254;73873;-69
2023/06/28 06:53:16;;;;;;;3.70;2.00;;;;;;;32.65;28.79;99143.59;107894;1254;69343;-69
2023/06/28 06:55:44;;;;;;;4.60;2.10;;;;;;;32.59;29.01;99150.77;107821;1254;72652;-69
2023/06/28 06:58:11;;;;;;;4.00;2.30;;;;;;;32.25;29.15;99157.86;107858;1254;60309;-69
2023/06/28 07:00:39;;;;;;;2.30;1.80;;;;;;;32.24;29.34;99160.90;107808;1254;60330;-69
2023/06/28 07:03:06;;;;;;;3.30;2.20;;;;;;;31.96;29.55;99168.70;107861;1254;74284;-69
2023/06/28 07:05:34;;;;;;;3.50;2.10;;;;;;;32.39;29.28;99161.55;107851;1254;70511;-70
2023/06/28 07:08:01;;;;;;;2.80;2.00;;;;;;;32.75;29.07;99164.44;107863;1254;72737;-68
2023/06/28 07:10:29;;;;;;;3.30;1.90;;;;;;;32.93;28.81;99163.83;107905;1254;60027;-69
2023/06/28 07:12:56;;;;;;;2.90;2.20;;;;;;;33.06;28.41;99164.67;107851;1254;60351;-69
2023/06/28 07:15:26;;;;;;;2.70;2.00;;;;;;;33.42;28.70;99168.39;108527;1254;72947;-68
2023/06/28 07:17:54;;;;;;;3.30;2.10;;;;;;;33.86;28.10;99170.16;107924;1254;70421;-70
2023/06/28 07:20:21;;;;;;;6.70;2.10;;;;;;;33.80;27.52;99174.25;107947;1254;63763;-69
2023/06/28 07:22:49;;;;;;;3.80;1.90;;;;;;;33.83;27.50;99168.61;107904;1254;60488;-67
2023/06/28 07:25:16;;;;;;;4.50;1.90;;;;;;;34.10;27.44;99170.98;108016;1254;60833;-70
2023/06/28 07:27:44;;;;;;;7.40;1.80;;;;;;;34.26;26.96;99168.64;107984;1259;63841;-67
2023/06/28 07:30:12;;;;;;;2.50;1.80;;;;;;;34.19;26.52;99166.78;107932;1254;61341;-68
2023/06/28 07:32:39;;;;;;;2.60;2.00;;;;;;;33.69;27.00;99169.50;107913;1257;63741;-70
2023/06/28 07:35:07;;;;;;;2.30;1.70;;;;;;;33.75;27.19;99164.23;107875;1254;60777;-69
2023/06/28 07:37:34;;;;;;;6.40;1.80;;;;;;;34.30;26.97;99159.36;107802;1257;60331;-70
2023/06/28 07:40:02;;;;;;;3.00;1.90;;;;;;;34.66;26.35;99161.88;107878;1254;64977;-68
2023/06/28 07:42:30;;;;;;;2.30;1.70;;;;;;;34.54;26.12;99163.05;107867;1254;61591;-70
2023/06/28 07:44:58;;;;;;;2.10;1.70;;;;;;;34.42;25.74;99167.70;107864;1257;63682;-68
2023/06/28 07:47:25;;;;;;;3.40;2.00;;;;;;;34.41;26.08;99173.61;107944;1255;60472;-70
2023/06/28 07:49:52;;;;;;;5.70;2.10;;;;;;;34.14;26.24;99168.89;107898;1254;60884;-68
2023/06/28 07:52:20;;;;;;;4.10;1.80;;;;;;;33.98;26.64;99166.94;107816;1259;64993;-69
2023/06/28 07:54:47;;;;;;;5.40;1.70;;;;;;;33.95;26.66;99169.20;107856;1254;61500;-69
2023/06/28 07:57:15;;;;;;;5.40;1.80;;;;;;;34.24;26.44;99166.65;107814;1254;62473;-69
2023/06/28 07:59:42;;;;;;;3.60;1.80;;;;;;;34.64;25.96;99168.95;107793;1254;59578;-70
2023/06/28 08:02:10;;;;;;;2.20;1.70;;;;;;;34.90;25.59;99171.09;107890;1253;60469;-69
2023/06/28 08:04:39;;;;;;;3.20;1.60;;;;;;;34.99;24.74;99166.77;107855;1257;65030;-69
2023/06/28 08:07:06;;;;;;;3.60;1.70;;;;;;;34.48;24.94;99165.38;107882;1254;61344;-70
2023/06/28 08:09:34;;;;;;;5.40;1.50;;;;;;;34.53;24.97;99169.66;107874;1256;63222;-68
2023/06/28 08:12:01;;;;;;;3.00;1.60;;;;;;;34.70;24.42;99165.54;107940;1254;59664;-68
2023/06/28 08:14:29;;;;;;;3.10;1.90;;;;;;;34.99;24.15;99164.77;107835;1254;59562;-70
2023/06/28 08:16:56;;;;;;;9.00;2.30;;;;;;;35.04;23.80;99162.71;107755;1254;65428;-69
2023/06/28 08:19:24;;;;;;;2.50;1.20;;;;;;;35.28;23.62;99171.56;107961;1254;61593;-70
2023/06/28 08:21:52;;;;;;;5.90;1.80;;;;;;;35.49;23.46;99169.63;107960;1259;63745;-70
2023/06/28 08:24:20;;;;;;;3.40;1.30;;;;;;;35.85;22.50;99168.07;107883;1257;59700;-68
2023/06/28 08:26:50;;;;;;;4.20;1.60;;;;;;;36.04;22.66;99165.73;107773;1256;60625;-68
2023/06/28 08:29:17;;;;;;;8.20;1.50;;;;;;;36.41;22.37;99163.04;107736;1254;64948;-68
2023/06/28 08:31:45;;;;;;;3.70;1.80;;;;;;;36.66;22.38;99158.73;107695;1257;60203;-69
2023/06/28 08:34:12;;;;;;;3.50;1.30;;;;;;;36.46;21.96;99161.74;107825;1260;62867;-68
2023/06/28 08:36:40;;;;;;;2.60;1.40;;;;;;;35.91;22.36;99168.84;107845;1256;60372;-69
2023/06/28 08:39:07;;;;;;;2.20;1.60;;;;;;;35.63;22.74;99168.66;107815;1257;59143;-69
2023/06/28 08:41:36;;;;;;;2.00;1.50;;;;;;;35.43;22.43;99167.04;107666;1257;63651;-70
2023/06/28 08:44:05;;;;;;;3.00;1.80;;;;;;;35.62;22.45;99164.84;107678;1260;61088;-69
2023/06/28 08:46:32;;;;;;;3.10;1.60;;;;;;;35.79;22.55;99163.48;107651;1257;64578;-70
2023/06/28 08:49:00;;;;;;;3.90;1.60;;;;;;;36.08;22.56;99157.96;107676;1257;60792;-69
2023/06/28 08:51:27;;;;;;;4.60;1.50;;;;;;;35.68;22.62;99163.83;107472;1257;60298;-67
2023/06/28 08:53:55;;;;;;;3.70;1.50;;;;;;;35.15;23.28;99160.11;107625;1255;63725;-68
2023/06/28 08:56:22;;;;;;;4.10;1.70;;;;;;;35.38;22.99;99159.65;107674;1258;60421;-69
2023/06/28 08:58:51;;;;;;;2.00;1.20;;;;;;;35.46;22.62;99160.48;107776;1256;62468;-68
2023/06/28 09:01:21;;;;;;;1.80;1.60;;;;;;;35.57;22.69;99163.56;107656;1261;60322;-70
2023/06/28 09:03:49;;;;;;;5.90;1.70;;;;;;;35.41;22.47;99163.72;107649;1257;60630;-68
2023/06/28 09:06:19;;;;;;;2.70;1.60;;;;;;;35.14;22.85;99159.04;107563;1257;63621;-69
2023/06/28 09:08:46;;;;;;;3.00;1.60;;;;;;;35.37;22.71;99165.02;107576;1257;70759;-67
2023/06/28 09:11:16;;;;;;;3.00;1.30;;;;;;;35.54;22.59;99162.30;107290;1266;62460;-67
2023/06/28 09:13:43;;;;;;;2.20;1.30;;;;;;;35.58;21.62;99164.08;107749;1257;60424;-68
2023/06/28 09:16:11;;;;;;;3.10;1.30;;;;;;;35.76;21.14;99160.26;107742;1262;59613;-68
2023/06/28 09:18:38;;;;;;;2.30;1.10;;;;;;;35.89;21.17;99158.64;107980;1257;63629;-69
2023/06/28 09:21:06;;;;;;;2.50;1.20;;;;;;;35.45;20.94;99160.48;107753;1261;63428;-68
2023/06/28 09:23:36;;;;;;;2.60;1.30;;;;;;;34.97;21.61;99162.98;107695;1257;63860;-68
2023/06/28 09:26:04;;;;;;;4.30;1.40;;;;;;;35.06;22.00;99161.20;107716;1257;60551;-70
2023/06/28 09:28:35;;;;;;;4.80;1.30;;;;;;;35.46;21.93;99160.11;107527;1256;60617;-69
2023/06/28 09:31:06;;;;;;;3.40;1.10;;;;;;;36.00;21.88;99159.42;107801;1257;66928;-69
2023/06/28 09:33:33;;;;;;;5.00;1.30;;;;;;;36.33;21.33;99155.10;108021;1258;60306;-70
2023/06/28 09:36:04;;;;;;;3.70;1.20;;;;;;;36.41;21.19;99145.88;107788;1257;64052;-68
2023/06/28 09:38:31;;;;;;;2.60;1.00;;;;;;;36.48;21.56;99145.59;108360;1257;60617;-68
2023/06/28 09:41:00;;;;;;;3.70;1.10;;;;;;;36.52;21.47;99144.02;108196;1257;58173;-70
2023/06/28 09:43:34;;;;;;;4.50;1.20;;;;;;;36.43;21.03;99144.20;107886;1256;63660;-69
2023/06/28 09:46:15;;;;;;;3.70;1.70;;;;;;;35.82;21.14;99153.46;108557;1256;60156;-69
2023/06/28 09:48:52;;;;;;;3.70;1.30;;;;;;;35.21;21.24;99153.46;107963;1257;63712;-68
2023/06/28 09:51:20;;;;;;;5.50;1.00;;;;;;;35.27;21.48;99152.93;107973;1257;60336;-70
2023/06/28 09:53:52;;;;;;;2.60;1.20;;;;;;;35.37;21.59;99151.89;107770;1257;60291;-68
2023/06/28 09:56:53;;;;;;;;;;;;;;;;;;;;;
2023/06/28 09:59:26;;;;;;;5.00;1.20;;;;;;;35.63;21.36;99150.71;107773;1257;60306;-70
2023/06/28 10:02:07;;;;;;;3.00;1.20;;;;;;;35.51;21.17;99160.10;107638;1256;62520;-69
2023/06/28 10:04:36;;;;;;;2.40;1.00;;;;;;;34.93;21.11;99161.70;107698;1257;61263;-70
2023/06/28 10:07:04;;;;;;;3.70;1.00;;;;;;;34.92;21.75;99166.31;107797;1257;60207;-71
2023/06/28 10:09:45;;;;;;;2.60;1.10;;;;;;;34.97;21.50;99168.27;107792;1256;64922;-69
2023/06/28 10:12:19;;;;;;;6.10;1.50;;;;;;;34.79;21.44;99173.90;107781;1257;61490;-70
2023/06/28 10:14:54;;;;;;;1.30;0.90;;;;;;;34.61;21.36;99165.96;107755;1257;63219;-69
2023/06/28 10:17:31;;;;;;;1.60;0.90;;;;;;;34.88;21.11;99158.52;107952;1257;60843;-69
2023/06/28 10:19:59;;;;;;;2.40;1.10;;;;;;;35.30;20.96;99162.07;107789;1257;60480;-68
2023/06/28 10:22:26;;;;;;;2.00;0.90;;;;;;;35.97;20.94;99158.58;107690;1256;65019;-70
2023/06/28 10:24:55;;;;;;;2.20;1.30;;;;;;;35.91;20.53;99162.23;107715;1257;61976;-69
2023/06/28 10:27:23;;;;;;;3.60;1.30;;;;;;;35.88;20.15;99162.80;107696;1255;64494;-69
2023/06/28 10:29:51;;;;;;;3.40;0.90;;;;;;;35.76;20.10;99158.18;107628;1257;60322;-69
2023/06/28 10:32:23;;;;;;;6.00;1.00;;;;;;;35.66;20.26;99150.40;107506;1256;60210;-68
2023/06/28 10:34:50;;;;;;;2.50;1.00;;;;;;;35.33;20.59;99149.48;107674;1256;63659;-66
2023/06/28 10:37:22;;;;;;;3.00;1.10;;;;;;;35.58;20.65;99146.82;107688;1262;60517;-68
2023/06/28 10:39:57;;;;;;;2.80;0.90;;;;;;;36.39;20.36;99143.67;107643;1256;62477;-69
2023/06/28 10:42:24;;;;;;;2.30;1.00;;;;;;;36.58;19.33;99144.98;107788;1256;60663;-68
2023/06/28 10:44:53;;;;;;;3.90;1.10;;;;;;;36.22;19.44;99147.03;107687;1256;60316;-68
2023/06/28 10:47:21;;;;;;;2.90;1.10;;;;;;;36.23;19.77;99147.98;107939;1256;64057;-69
2023/06/28 10:50:11;;;;;;;2.80;1.00;;;;;;;36.37;19.18;99144.04;107631;1261;61456;-69
2023/06/28 10:52:48;;;;;;;4.00;1.00;;;;;;;36.50;18.98;99143.21;107628;1256;63007;-68
2023/06/28 10:55:20;;;;;;;5.50;1.10;;;;;;;36.48;19.03;99146.20;107713;1257;60424;-68
2023/06/28 10:58:10;;;;;;;3.10;1.10;;;;;;;36.37;18.79;99149.90;107637;1258;60450;-69
2023/06/28 11:00:40;;;;;;;3.80;1.10;;;;;;;36.08;18.75;99151.38;108954;1256;63667;-68
2023/06/28 11:03:08;;;;;;;2.50;1.20;;;;;;;36.19;19.30;99150.71;108918;1256;61537;-69
2023/06/28 11:05:36;;;;;;;1.90;0.90;;;;;;;36.17;19.31;99147.55;108868;1257;63286;-69
2023/06/28 11:10:55;;;;;;;1.80;0.90;;;;;;;33.14;21.68;99157.86;105555;1282;601596;-68
2023/06/28 11:13:32;;;;;;;3.00;0.70;;;;;;;34.47;20.38;99150.02;107316;1264;58727;-69
2023/06/28 11:16:11;;;;;;;6.00;1.00;;;;;;;34.60;20.50;99143.35;107270;1264;59080;-69
2023/06/28 11:18:39;;;;;;;5.60;1.20;;;;;;;34.99;20.83;99141.95;107341;1264;63368;-69
2023/06/28 11:21:14;;;;;;;3.60;1.00;;;;;;;35.60;20.53;99132.36;108003;1253;61339;-69
2023/06/28 11:23:42;;;;;;;8.60;1.00;;;;;;;35.93;20.20;99131.84;107833;1252;135999;-68
2023/06/28 11:26:18;;;;;;;2.50;1.10;;;;;;;35.91;20.08;99133.81;109362;1251;57095;-69
2023/06/28 11:28:54;;;;;;;5.90;1.10;;;;;;;36.05;19.72;99128.10;109346;1251;57015;-70
2023/06/28 11:31:24;;;;;;;4.70;1.00;;;;;;;36.10;19.69;99127.86;108069;1251;72761;-70
2023/06/28 11:33:55;;;;;;;2.80;1.00;;;;;;;35.93;19.16;99131.17;108097;1251;62641;-68